sensor_id;sensor_type;location;lat;lon;timestamp;P1;durP1;ratioP1;P2;durP2;ratioP2
34805;SDS011;65084;42.196;25.326;2023-12-20T00:02:26;32.88;;;19.10;;
34805;SDS011;65084;42.196;25.326;2023-12-20T00:04:53;35.42;;;20.25;;
34805;SDS011;65084;42.196;25.326;2023-12-20T00:07:21;45.35;;;20.70;;
34805;SDS011;65084;42.196;25.326;2023-12-20T00:09:48;44.67;;;21.65;;
34805;SDS011;65084;42.196;25.326;2023-12-20T00:12:15;40.13;;;19.70;;
34805;SDS011;65084;42.196;25.326;2023-12-20T00:14:42;34.78;;;17.85;;
34805;SDS011;65084;42.196;25.326;2023-12-20T00:17:11;33.78;;;17.77;;
34805;SDS011;65084;42.196;25.326;2023-12-20T00:19:38;30.33;;;17.08;;
34805;SDS011;65084;42.196;25.326;2023-12-20T00:22:06;30.95;;;17.10;;
34805;SDS011;65084;42.196;25.326;2023-12-20T00:24:33;36.75;;;18.50;;
34805;SDS011;65084;42.196;25.326;2023-12-20T00:27:00;33.35;;;17.73;;
34805;SDS011;65084;42.196;25.326;2023-12-20T00:29:28;30.05;;;17.20;;
34805;SDS011;65084;42.196;25.326;2023-12-20T00:31:55;33.30;;;17.85;;
34805;SDS011;65084;42.196;25.326;2023-12-20T00:34:24;28.52;;;16.85;;
34805;SDS011;65084;42.196;25.326;2023-12-20T00:36:51;31.05;;;16.73;;
34805;SDS011;65084;42.196;25.326;2023-12-20T00:39:18;27.17;;;16.05;;
34805;SDS011;65084;42.196;25.326;2023-12-20T00:41:45;27.30;;;16.27;;
34805;SDS011;65084;42.196;25.326;2023-12-20T00:44:13;30.13;;;17.50;;
34805;SDS011;65084;42.196;25.326;2023-12-20T00:46:40;36.10;;;18.42;;
34805;SDS011;65084;42.196;25.326;2023-12-20T00:49:07;28.75;;;16.23;;
34805;SDS011;65084;42.196;25.326;2023-12-20T00:51:36;26.90;;;16.17;;
34805;SDS011;65084;42.196;25.326;2023-12-20T00:54:03;29.60;;;16.30;;
34805;SDS011;65084;42.196;25.326;2023-12-20T00:56:30;28.67;;;16.45;;
34805;SDS011;65084;42.196;25.326;2023-12-20T00:58:58;31.23;;;15.18;;
34805;SDS011;65084;42.196;25.326;2023-12-20T01:01:25;31.50;;;17.77;;
34805;SDS011;65084;42.196;25.326;2023-12-20T01:03:52;38.95;;;20.77;;
34805;SDS011;65084;42.196;25.326;2023-12-20T01:06:20;52.13;;;22.25;;
34805;SDS011;65084;42.196;25.326;2023-12-20T01:08:49;41.90;;;21.23;;
34805;SDS011;65084;42.196;25.326;2023-12-20T01:11:16;38.38;;;20.08;;
34805;SDS011;65084;42.196;25.326;2023-12-20T01:13:43;30.30;;;17.40;;
34805;SDS011;65084;42.196;25.326;2023-12-20T01:16:12;31.73;;;18.40;;
34805;SDS011;65084;42.196;25.326;2023-12-20T01:18:39;28.13;;;17.27;;
34805;SDS011;65084;42.196;25.326;2023-12-20T01:21:06;27.35;;;16.52;;
34805;SDS011;65084;42.196;25.326;2023-12-20T01:23:34;27.52;;;16.08;;
34805;SDS011;65084;42.196;25.326;2023-12-20T01:26:02;27.65;;;16.33;;
34805;SDS011;65084;42.196;25.326;2023-12-20T01:28:30;33.05;;;16.70;;
34805;SDS011;65084;42.196;25.326;2023-12-20T01:30:58;28.38;;;17.27;;
34805;SDS011;65084;42.196;25.326;2023-12-20T01:33:25;30.08;;;16.50;;
34805;SDS011;65084;42.196;25.326;2023-12-20T01:35:52;30.40;;;17.55;;
34805;SDS011;65084;42.196;25.326;2023-12-20T01:38:19;29.58;;;17.55;;
34805;SDS011;65084;42.196;25.326;2023-12-20T01:40:47;30.92;;;18.08;;
34805;SDS011;65084;42.196;25.326;2023-12-20T01:43:15;34.38;;;17.48;;
34805;SDS011;65084;42.196;25.326;2023-12-20T01:45:43;31.88;;;17.88;;
34805;SDS011;65084;42.196;25.326;2023-12-20T01:48:10;32.42;;;18.42;;
34805;SDS011;65084;42.196;25.326;2023-12-20T01:50:38;31.05;;;17.90;;
34805;SDS011;65084;42.196;25.326;2023-12-20T01:53:07;33.67;;;18.25;;
34805;SDS011;65084;42.196;25.326;2023-12-20T01:55:36;32.70;;;20.05;;
34805;SDS011;65084;42.196;25.326;2023-12-20T01:58:05;29.17;;;17.67;;
34805;SDS011;65084;42.196;25.326;2023-12-20T02:00:35;30.50;;;17.75;;
34805;SDS011;65084;42.196;25.326;2023-12-20T02:03:03;32.83;;;17.40;;
34805;SDS011;65084;42.196;25.326;2023-12-20T02:05:30;39.60;;;18.15;;
34805;SDS011;65084;42.196;25.326;2023-12-20T02:07:58;32.20;;;18.38;;
34805;SDS011;65084;42.196;25.326;2023-12-20T02:10:25;31.55;;;18.15;;
34805;SDS011;65084;42.196;25.326;2023-12-20T02:12:53;30.40;;;16.50;;
34805;SDS011;65084;42.196;25.326;2023-12-20T02:15:20;31.63;;;17.70;;
34805;SDS011;65084;42.196;25.326;2023-12-20T02:17:49;37.35;;;17.95;;
34805;SDS011;65084;42.196;25.326;2023-12-20T02:20:16;33.80;;;17.73;;
34805;SDS011;65084;42.196;25.326;2023-12-20T02:22:45;30.40;;;16.50;;
34805;SDS011;65084;42.196;25.326;2023-12-20T02:25:12;28.63;;;17.38;;
34805;SDS011;65084;42.196;25.326;2023-12-20T02:27:40;27.02;;;16.63;;
34805;SDS011;65084;42.196;25.326;2023-12-20T02:30:07;34.88;;;17.88;;
34805;SDS011;65084;42.196;25.326;2023-12-20T02:32:35;29.73;;;17.55;;
34805;SDS011;65084;42.196;25.326;2023-12-20T02:35:02;31.58;;;17.10;;
34805;SDS011;65084;42.196;25.326;2023-12-20T02:37:30;32.78;;;17.25;;
34805;SDS011;65084;42.196;25.326;2023-12-20T02:39:58;33.20;;;17.42;;
34805;SDS011;65084;42.196;25.326;2023-12-20T02:42:25;34.40;;;17.40;;
34805;SDS011;65084;42.196;25.326;2023-12-20T02:44:53;29.90;;;17.45;;
34805;SDS011;65084;42.196;25.326;2023-12-20T02:47:20;30.27;;;17.25;;
34805;SDS011;65084;42.196;25.326;2023-12-20T02:49:47;29.00;;;17.42;;
34805;SDS011;65084;42.196;25.326;2023-12-20T02:52:15;30.40;;;16.92;;
34805;SDS011;65084;42.196;25.326;2023-12-20T02:54:42;26.60;;;16.52;;
34805;SDS011;65084;42.196;25.326;2023-12-20T02:57:11;29.60;;;16.45;;
34805;SDS011;65084;42.196;25.326;2023-12-20T02:59:38;27.85;;;17.27;;
34805;SDS011;65084;42.196;25.326;2023-12-20T03:02:05;33.55;;;17.67;;
34805;SDS011;65084;42.196;25.326;2023-12-20T03:04:32;31.73;;;17.80;;
34805;SDS011;65084;42.196;25.326;2023-12-20T03:07:00;30.92;;;17.70;;
34805;SDS011;65084;42.196;25.326;2023-12-20T03:09:27;32.42;;;17.38;;
34805;SDS011;65084;42.196;25.326;2023-12-20T03:11:54;32.65;;;18.13;;
34805;SDS011;65084;42.196;25.326;2023-12-20T03:14:23;31.75;;;17.83;;
34805;SDS011;65084;42.196;25.326;2023-12-20T03:16:50;27.52;;;16.25;;
34805;SDS011;65084;42.196;25.326;2023-12-20T03:19:18;29.73;;;16.38;;
34805;SDS011;65084;42.196;25.326;2023-12-20T03:21:45;33.33;;;17.02;;
34805;SDS011;65084;42.196;25.326;2023-12-20T03:24:12;27.85;;;16.75;;
34805;SDS011;65084;42.196;25.326;2023-12-20T03:26:40;29.80;;;17.17;;
34805;SDS011;65084;42.196;25.326;2023-12-20T03:29:07;26.02;;;16.15;;
34805;SDS011;65084;42.196;25.326;2023-12-20T03:31:36;29.38;;;16.77;;
34805;SDS011;65084;42.196;25.326;2023-12-20T03:34:03;24.25;;;16.00;;
34805;SDS011;65084;42.196;25.326;2023-12-20T03:36:30;29.75;;;16.33;;
34805;SDS011;65084;42.196;25.326;2023-12-20T03:38:58;27.48;;;15.65;;
34805;SDS011;65084;42.196;25.326;2023-12-20T03:41:25;30.17;;;16.77;;
34805;SDS011;65084;42.196;25.326;2023-12-20T03:43:52;30.67;;;16.35;;
34805;SDS011;65084;42.196;25.326;2023-12-20T03:46:19;26.65;;;16.52;;
34805;SDS011;65084;42.196;25.326;2023-12-20T03:48:48;35.25;;;18.17;;
34805;SDS011;65084;42.196;25.326;2023-12-20T03:51:15;32.25;;;17.90;;
34805;SDS011;65084;42.196;25.326;2023-12-20T03:53:43;35.15;;;18.58;;
34805;SDS011;65084;42.196;25.326;2023-12-20T03:56:10;33.90;;;17.55;;
34805;SDS011;65084;42.196;25.326;2023-12-20T03:58:37;33.75;;;18.20;;
34805;SDS011;65084;42.196;25.326;2023-12-20T04:01:08;28.38;;;15.80;;
34805;SDS011;65084;42.196;25.326;2023-12-20T04:03:37;28.27;;;16.35;;
34805;SDS011;65084;42.196;25.326;2023-12-20T04:06:06;28.73;;;16.50;;
34805;SDS011;65084;42.196;25.326;2023-12-20T04:08:34;35.97;;;17.50;;
34805;SDS011;65084;42.196;25.326;2023-12-20T04:11:02;30.30;;;16.40;;
34805;SDS011;65084;42.196;25.326;2023-12-20T04:13:29;30.23;;;16.92;;
34805;SDS011;65084;42.196;25.326;2023-12-20T04:15:56;32.45;;;17.52;;
34805;SDS011;65084;42.196;25.326;2023-12-20T04:18:24;36.88;;;19.75;;
34805;SDS011;65084;42.196;25.326;2023-12-20T04:20:51;32.53;;;19.05;;
34805;SDS011;65084;42.196;25.326;2023-12-20T04:23:20;31.80;;;16.48;;
34805;SDS011;65084;42.196;25.326;2023-12-20T04:25:47;25.10;;;15.45;;
34805;SDS011;65084;42.196;25.326;2023-12-20T04:28:14;23.52;;;13.20;;
34805;SDS011;65084;42.196;25.326;2023-12-20T04:30:42;26.58;;;13.82;;
34805;SDS011;65084;42.196;25.326;2023-12-20T04:33:09;23.73;;;14.57;;
34805;SDS011;65084;42.196;25.326;2023-12-20T04:35:36;28.35;;;16.80;;
34805;SDS011;65084;42.196;25.326;2023-12-20T04:38:05;28.55;;;15.95;;
34805;SDS011;65084;42.196;25.326;2023-12-20T04:40:34;29.80;;;18.25;;
34805;SDS011;65084;42.196;25.326;2023-12-20T04:43:01;31.58;;;17.58;;
34805;SDS011;65084;42.196;25.326;2023-12-20T04:45:29;30.80;;;15.82;;
34805;SDS011;65084;42.196;25.326;2023-12-20T04:47:56;25.02;;;15.02;;
34805;SDS011;65084;42.196;25.326;2023-12-20T04:50:23;25.05;;;15.13;;
34805;SDS011;65084;42.196;25.326;2023-12-20T04:52:51;19.80;;;13.13;;
34805;SDS011;65084;42.196;25.326;2023-12-20T04:55:18;27.05;;;15.05;;
34805;SDS011;65084;42.196;25.326;2023-12-20T04:57:47;25.95;;;15.32;;
34805;SDS011;65084;42.196;25.326;2023-12-20T05:00:15;30.05;;;14.95;;
34805;SDS011;65084;42.196;25.326;2023-12-20T05:02:42;29.13;;;15.82;;
34805;SDS011;65084;42.196;25.326;2023-12-20T05:05:09;31.80;;;18.85;;
34805;SDS011;65084;42.196;25.326;2023-12-20T05:07:37;33.03;;;19.23;;
34805;SDS011;65084;42.196;25.326;2023-12-20T05:10:04;41.97;;;19.10;;
34805;SDS011;65084;42.196;25.326;2023-12-20T05:12:33;39.72;;;20.55;;
34805;SDS011;65084;42.196;25.326;2023-12-20T05:15:02;44.13;;;24.38;;
34805;SDS011;65084;42.196;25.326;2023-12-20T05:17:29;47.75;;;25.88;;
34805;SDS011;65084;42.196;25.326;2023-12-20T05:19:56;53.95;;;27.67;;
34805;SDS011;65084;42.196;25.326;2023-12-20T05:22:24;46.72;;;26.02;;
34805;SDS011;65084;42.196;25.326;2023-12-20T05:24:52;51.42;;;23.48;;
34805;SDS011;65084;42.196;25.326;2023-12-20T05:27:19;43.60;;;23.45;;
34805;SDS011;65084;42.196;25.326;2023-12-20T05:29:47;43.20;;;23.67;;
34805;SDS011;65084;42.196;25.326;2023-12-20T05:32:16;44.92;;;23.38;;
34805;SDS011;65084;42.196;25.326;2023-12-20T05:34:43;55.45;;;23.42;;
34805;SDS011;65084;42.196;25.326;2023-12-20T05:37:11;46.67;;;24.88;;
34805;SDS011;65084;42.196;25.326;2023-12-20T05:39:38;39.58;;;22.83;;
34805;SDS011;65084;42.196;25.326;2023-12-20T05:42:05;49.40;;;24.75;;
34805;SDS011;65084;42.196;25.326;2023-12-20T05:44:33;45.85;;;25.30;;
34805;SDS011;65084;42.196;25.326;2023-12-20T05:47:00;49.67;;;26.02;;
34805;SDS011;65084;42.196;25.326;2023-12-20T05:49:29;49.20;;;26.60;;
34805;SDS011;65084;42.196;25.326;2023-12-20T05:51:56;49.95;;;28.08;;
34805;SDS011;65084;42.196;25.326;2023-12-20T05:54:24;50.85;;;27.83;;
34805;SDS011;65084;42.196;25.326;2023-12-20T05:56:51;47.63;;;25.77;;
34805;SDS011;65084;42.196;25.326;2023-12-20T05:59:18;41.60;;;21.98;;
34805;SDS011;65084;42.196;25.326;2023-12-20T06:01:45;38.30;;;20.85;;
34805;SDS011;65084;42.196;25.326;2023-12-20T06:04:13;45.22;;;21.48;;
34805;SDS011;65084;42.196;25.326;2023-12-20T06:06:42;92.20;;;36.42;;
34805;SDS011;65084;42.196;25.326;2023-12-20T06:09:09;63.25;;;27.45;;
34805;SDS011;65084;42.196;25.326;2023-12-20T06:11:37;58.22;;;26.33;;
34805;SDS011;65084;42.196;25.326;2023-12-20T06:14:04;54.22;;;26.50;;
34805;SDS011;65084;42.196;25.326;2023-12-20T06:16:31;71.57;;;33.42;;
34805;SDS011;65084;42.196;25.326;2023-12-20T06:18:58;82.15;;;37.42;;
34805;SDS011;65084;42.196;25.326;2023-12-20T06:21:26;75.63;;;36.78;;
34805;SDS011;65084;42.196;25.326;2023-12-20T06:23:54;57.78;;;30.65;;
34805;SDS011;65084;42.196;25.326;2023-12-20T06:26:22;66.43;;;32.35;;
34805;SDS011;65084;42.196;25.326;2023-12-20T06:28:50;66.97;;;32.40;;
34805;SDS011;65084;42.196;25.326;2023-12-20T06:31:17;50.17;;;28.52;;
34805;SDS011;65084;42.196;25.326;2023-12-20T06:33:44;52.28;;;27.80;;
34805;SDS011;65084;42.196;25.326;2023-12-20T06:36:11;56.45;;;28.00;;
34805;SDS011;65084;42.196;25.326;2023-12-20T06:38:39;60.25;;;29.30;;
34805;SDS011;65084;42.196;25.326;2023-12-20T06:41:10;57.63;;;28.80;;
34805;SDS011;65084;42.196;25.326;2023-12-20T06:43:39;64.25;;;31.75;;
34805;SDS011;65084;42.196;25.326;2023-12-20T06:46:07;68.50;;;33.13;;
34805;SDS011;65084;42.196;25.326;2023-12-20T06:48:34;66.80;;;32.05;;
34805;SDS011;65084;42.196;25.326;2023-12-20T06:51:02;64.38;;;31.80;;
34805;SDS011;65084;42.196;25.326;2023-12-20T06:53:29;65.18;;;31.25;;
34805;SDS011;65084;42.196;25.326;2023-12-20T06:55:56;57.13;;;27.88;;
34805;SDS011;65084;42.196;25.326;2023-12-20T06:58:25;56.90;;;29.20;;
34805;SDS011;65084;42.196;25.326;2023-12-20T07:00:52;72.35;;;34.20;;
34805;SDS011;65084;42.196;25.326;2023-12-20T07:03:19;77.35;;;41.40;;
34805;SDS011;65084;42.196;25.326;2023-12-20T07:05:47;94.15;;;49.10;;
34805;SDS011;65084;42.196;25.326;2023-12-20T07:08:14;110.43;;;54.97;;
34805;SDS011;65084;42.196;25.326;2023-12-20T07:10:41;120.05;;;57.45;;
34805;SDS011;65084;42.196;25.326;2023-12-20T07:13:09;96.22;;;48.58;;
34805;SDS011;65084;42.196;25.326;2023-12-20T07:15:37;85.97;;;42.75;;
34805;SDS011;65084;42.196;25.326;2023-12-20T07:18:05;80.10;;;43.20;;
34805;SDS011;65084;42.196;25.326;2023-12-20T07:20:32;83.18;;;45.08;;
34805;SDS011;65084;42.196;25.326;2023-12-20T07:22:59;76.70;;;42.78;;
34805;SDS011;65084;42.196;25.326;2023-12-20T07:25:26;86.40;;;44.85;;
34805;SDS011;65084;42.196;25.326;2023-12-20T07:27:55;79.93;;;42.75;;
34805;SDS011;65084;42.196;25.326;2023-12-20T07:30:22;71.88;;;42.15;;
34805;SDS011;65084;42.196;25.326;2023-12-20T07:32:51;67.78;;;39.67;;
34805;SDS011;65084;42.196;25.326;2023-12-20T07:35:19;64.07;;;39.90;;
34805;SDS011;65084;42.196;25.326;2023-12-20T07:37:47;66.63;;;38.72;;
34805;SDS011;65084;42.196;25.326;2023-12-20T07:40:14;64.90;;;40.08;;
34805;SDS011;65084;42.196;25.326;2023-12-20T07:42:42;46.53;;;28.83;;
34805;SDS011;65084;42.196;25.326;2023-12-20T07:45:09;39.70;;;25.80;;
34805;SDS011;65084;42.196;25.326;2023-12-20T07:47:37;58.63;;;31.60;;
34805;SDS011;65084;42.196;25.326;2023-12-20T07:50:07;63.05;;;34.75;;
34805;SDS011;65084;42.196;25.326;2023-12-20T07:52:35;61.63;;;32.60;;
34805;SDS011;65084;42.196;25.326;2023-12-20T07:55:02;72.22;;;35.63;;
34805;SDS011;65084;42.196;25.326;2023-12-20T07:57:30;66.45;;;35.15;;
34805;SDS011;65084;42.196;25.326;2023-12-20T07:59:57;71.57;;;36.42;;
34805;SDS011;65084;42.196;25.326;2023-12-20T08:02:24;71.38;;;37.55;;
34805;SDS011;65084;42.196;25.326;2023-12-20T08:04:52;64.78;;;35.00;;
34805;SDS011;65084;42.196;25.326;2023-12-20T08:07:20;72.20;;;39.90;;
34805;SDS011;65084;42.196;25.326;2023-12-20T08:09:48;85.22;;;43.60;;
34805;SDS011;65084;42.196;25.326;2023-12-20T08:12:16;79.38;;;42.28;;
34805;SDS011;65084;42.196;25.326;2023-12-20T08:14:43;93.97;;;42.67;;
34805;SDS011;65084;42.196;25.326;2023-12-20T08:17:11;93.05;;;40.15;;
34805;SDS011;65084;42.196;25.326;2023-12-20T08:19:41;80.25;;;37.88;;
34805;SDS011;65084;42.196;25.326;2023-12-20T08:22:08;57.83;;;31.60;;
34805;SDS011;65084;42.196;25.326;2023-12-20T08:24:37;43.72;;;26.52;;
34805;SDS011;65084;42.196;25.326;2023-12-20T08:27:04;32.00;;;21.17;;
34805;SDS011;65084;42.196;25.326;2023-12-20T08:29:31;29.17;;;20.92;;
34805;SDS011;65084;42.196;25.326;2023-12-20T08:31:59;31.70;;;19.80;;
34805;SDS011;65084;42.196;25.326;2023-12-20T08:34:26;28.92;;;19.20;;
34805;SDS011;65084;42.196;25.326;2023-12-20T08:36:53;31.42;;;19.15;;
34805;SDS011;65084;42.196;25.326;2023-12-20T08:39:21;27.83;;;19.08;;
34805;SDS011;65084;42.196;25.326;2023-12-20T08:41:49;24.70;;;17.13;;
34805;SDS011;65084;42.196;25.326;2023-12-20T08:44:17;28.17;;;18.77;;
34805;SDS011;65084;42.196;25.326;2023-12-20T08:46:44;31.35;;;18.23;;
34805;SDS011;65084;42.196;25.326;2023-12-20T08:49:11;34.85;;;21.20;;
34805;SDS011;65084;42.196;25.326;2023-12-20T08:51:39;33.28;;;22.13;;
34805;SDS011;65084;42.196;25.326;2023-12-20T08:54:07;29.08;;;17.55;;
34805;SDS011;65084;42.196;25.326;2023-12-20T08:56:34;27.63;;;16.98;;
34805;SDS011;65084;42.196;25.326;2023-12-20T08:59:03;24.90;;;14.80;;
34805;SDS011;65084;42.196;25.326;2023-12-20T09:01:30;26.77;;;16.45;;
34805;SDS011;65084;42.196;25.326;2023-12-20T09:03:57;21.95;;;15.07;;
34805;SDS011;65084;42.196;25.326;2023-12-20T09:06:24;22.27;;;15.23;;
34805;SDS011;65084;42.196;25.326;2023-12-20T09:08:52;30.85;;;18.33;;
34805;SDS011;65084;42.196;25.326;2023-12-20T09:11:19;29.67;;;19.83;;
34805;SDS011;65084;42.196;25.326;2023-12-20T09:13:46;32.40;;;20.20;;
34805;SDS011;65084;42.196;25.326;2023-12-20T09:16:15;28.88;;;18.77;;
34805;SDS011;65084;42.196;25.326;2023-12-20T09:18:42;28.33;;;17.42;;
34805;SDS011;65084;42.196;25.326;2023-12-20T09:21:09;24.33;;;17.13;;
34805;SDS011;65084;42.196;25.326;2023-12-20T09:23:37;24.25;;;16.83;;
34805;SDS011;65084;42.196;25.326;2023-12-20T09:26:05;29.27;;;17.92;;
34805;SDS011;65084;42.196;25.326;2023-12-20T09:28:32;24.00;;;16.50;;
34805;SDS011;65084;42.196;25.326;2023-12-20T09:31:02;33.33;;;18.80;;
34805;SDS011;65084;42.196;25.326;2023-12-20T09:33:31;33.42;;;20.00;;
34805;SDS011;65084;42.196;25.326;2023-12-20T09:35:58;29.42;;;19.73;;
34805;SDS011;65084;42.196;25.326;2023-12-20T09:38:26;27.83;;;19.35;;
34805;SDS011;65084;42.196;25.326;2023-12-20T09:40:53;30.48;;;20.83;;
34805;SDS011;65084;42.196;25.326;2023-12-20T09:43:21;37.50;;;24.27;;
34805;SDS011;65084;42.196;25.326;2023-12-20T09:45:52;29.77;;;21.17;;
34805;SDS011;65084;42.196;25.326;2023-12-20T09:48:20;35.33;;;23.13;;
34805;SDS011;65084;42.196;25.326;2023-12-20T09:50:48;38.65;;;25.50;;
34805;SDS011;65084;42.196;25.326;2023-12-20T09:53:16;36.55;;;22.75;;
34805;SDS011;65084;42.196;25.326;2023-12-20T09:55:44;35.17;;;22.45;;
34805;SDS011;65084;42.196;25.326;2023-12-20T09:58:12;35.85;;;20.90;;
34805;SDS011;65084;42.196;25.326;2023-12-20T10:00:39;30.88;;;20.35;;
34805;SDS011;65084;42.196;25.326;2023-12-20T10:03:06;33.17;;;20.88;;
34805;SDS011;65084;42.196;25.326;2023-12-20T10:05:35;32.85;;;19.92;;
34805;SDS011;65084;42.196;25.326;2023-12-20T10:08:04;31.25;;;19.80;;
34805;SDS011;65084;42.196;25.326;2023-12-20T10:10:31;28.90;;;19.85;;
34805;SDS011;65084;42.196;25.326;2023-12-20T10:13:02;29.67;;;19.77;;
34805;SDS011;65084;42.196;25.326;2023-12-20T10:15:30;30.90;;;20.13;;
34805;SDS011;65084;42.196;25.326;2023-12-20T10:17:57;31.95;;;20.40;;
34805;SDS011;65084;42.196;25.326;2023-12-20T10:20:25;33.85;;;20.50;;
34805;SDS011;65084;42.196;25.326;2023-12-20T10:22:54;37.08;;;20.27;;
34805;SDS011;65084;42.196;25.326;2023-12-20T10:25:22;29.95;;;20.67;;
34805;SDS011;65084;42.196;25.326;2023-12-20T10:27:50;35.55;;;21.90;;
34805;SDS011;65084;42.196;25.326;2023-12-20T10:30:35;34.50;;;23.63;;
34805;SDS011;65084;42.196;25.326;2023-12-20T10:33:02;43.30;;;22.98;;
34805;SDS011;65084;42.196;25.326;2023-12-20T10:35:29;35.83;;;22.75;;
34805;SDS011;65084;42.196;25.326;2023-12-20T10:37:57;37.58;;;24.27;;
34805;SDS011;65084;42.196;25.326;2023-12-20T10:40:26;40.60;;;23.88;;
34805;SDS011;65084;42.196;25.326;2023-12-20T10:42:54;46.20;;;26.60;;
34805;SDS011;65084;42.196;25.326;2023-12-20T10:45:23;46.10;;;26.20;;
34805;SDS011;65084;42.196;25.326;2023-12-20T10:47:50;44.20;;;23.27;;
34805;SDS011;65084;42.196;25.326;2023-12-20T10:50:18;36.60;;;23.55;;
34805;SDS011;65084;42.196;25.326;2023-12-20T10:52:46;35.88;;;22.77;;
34805;SDS011;65084;42.196;25.326;2023-12-20T10:55:14;42.95;;;22.88;;
34805;SDS011;65084;42.196;25.326;2023-12-20T10:57:42;36.63;;;24.75;;
34805;SDS011;65084;42.196;25.326;2023-12-20T11:00:16;43.15;;;27.00;;
34805;SDS011;65084;42.196;25.326;2023-12-20T11:02:44;40.10;;;24.95;;
34805;SDS011;65084;42.196;25.326;2023-12-20T11:05:25;41.20;;;25.58;;
34805;SDS011;65084;42.196;25.326;2023-12-20T11:07:55;38.97;;;24.67;;
34805;SDS011;65084;42.196;25.326;2023-12-20T11:10:29;43.55;;;26.38;;
34805;SDS011;65084;42.196;25.326;2023-12-20T11:13:02;48.00;;;26.85;;
34805;SDS011;65084;42.196;25.326;2023-12-20T11:15:34;35.60;;;23.92;;
34805;SDS011;65084;42.196;25.326;2023-12-20T11:18:02;45.80;;;24.73;;
34805;SDS011;65084;42.196;25.326;2023-12-20T11:20:35;37.20;;;22.88;;
34805;SDS011;65084;42.196;25.326;2023-12-20T11:23:03;43.15;;;25.00;;
34805;SDS011;65084;42.196;25.326;2023-12-20T11:25:31;36.33;;;23.92;;
34805;SDS011;65084;42.196;25.326;2023-12-20T11:28:08;37.90;;;23.58;;
34805;SDS011;65084;42.196;25.326;2023-12-20T11:30:45;44.92;;;25.77;;
34805;SDS011;65084;42.196;25.326;2023-12-20T11:33:13;38.85;;;24.55;;
34805;SDS011;65084;42.196;25.326;2023-12-20T11:35:40;40.75;;;24.17;;
34805;SDS011;65084;42.196;25.326;2023-12-20T11:38:08;44.50;;;24.95;;
34805;SDS011;65084;42.196;25.326;2023-12-20T11:40:35;40.55;;;24.02;;
34805;SDS011;65084;42.196;25.326;2023-12-20T11:43:03;34.38;;;21.77;;
34805;SDS011;65084;42.196;25.326;2023-12-20T11:45:32;35.22;;;21.85;;
34805;SDS011;65084;42.196;25.326;2023-12-20T11:48:01;43.33;;;21.52;;
34805;SDS011;65084;42.196;25.326;2023-12-20T11:50:28;34.20;;;20.75;;
34805;SDS011;65084;42.196;25.326;2023-12-20T11:52:56;35.15;;;20.63;;
34805;SDS011;65084;42.196;25.326;2023-12-20T11:55:24;31.45;;;21.00;;
34805;SDS011;65084;42.196;25.326;2023-12-20T11:57:51;32.15;;;19.58;;
34805;SDS011;65084;42.196;25.326;2023-12-20T12:00:19;33.97;;;21.88;;
34805;SDS011;65084;42.196;25.326;2023-12-20T12:02:57;38.20;;;22.27;;
34805;SDS011;65084;42.196;25.326;2023-12-20T12:05:26;31.17;;;20.42;;
34805;SDS011;65084;42.196;25.326;2023-12-20T12:07:54;38.50;;;20.60;;
34805;SDS011;65084;42.196;25.326;2023-12-20T12:10:21;31.75;;;20.13;;
34805;SDS011;65084;42.196;25.326;2023-12-20T12:12:48;36.25;;;20.17;;
34805;SDS011;65084;42.196;25.326;2023-12-20T12:15:16;34.45;;;21.13;;
34805;SDS011;65084;42.196;25.326;2023-12-20T12:17:43;37.97;;;21.88;;
34805;SDS011;65084;42.196;25.326;2023-12-20T12:20:12;37.38;;;22.05;;
34805;SDS011;65084;42.196;25.326;2023-12-20T12:22:39;36.08;;;22.50;;
34805;SDS011;65084;42.196;25.326;2023-12-20T12:25:10;34.10;;;21.58;;
34805;SDS011;65084;42.196;25.326;2023-12-20T12:27:39;41.25;;;22.23;;
34805;SDS011;65084;42.196;25.326;2023-12-20T12:30:06;40.97;;;24.35;;
34805;SDS011;65084;42.196;25.326;2023-12-20T12:32:34;36.47;;;22.98;;
34805;SDS011;65084;42.196;25.326;2023-12-20T12:35:02;40.35;;;23.50;;
34805;SDS011;65084;42.196;25.326;2023-12-20T12:37:33;38.70;;;22.83;;
34805;SDS011;65084;42.196;25.326;2023-12-20T12:40:01;36.78;;;22.92;;
34805;SDS011;65084;42.196;25.326;2023-12-20T12:42:30;36.67;;;23.63;;
34805;SDS011;65084;42.196;25.326;2023-12-20T12:44:57;40.08;;;22.60;;
34805;SDS011;65084;42.196;25.326;2023-12-20T12:47:25;42.03;;;23.17;;
34805;SDS011;65084;42.196;25.326;2023-12-20T12:49:52;38.72;;;23.40;;
34805;SDS011;65084;42.196;25.326;2023-12-20T12:52:19;40.35;;;24.27;;
34805;SDS011;65084;42.196;25.326;2023-12-20T12:54:48;41.22;;;25.13;;
34805;SDS011;65084;42.196;25.326;2023-12-20T12:57:15;37.25;;;24.20;;
34805;SDS011;65084;42.196;25.326;2023-12-20T12:59:43;36.55;;;22.98;;
34805;SDS011;65084;42.196;25.326;2023-12-20T13:02:11;38.25;;;24.67;;
34805;SDS011;65084;42.196;25.326;2023-12-20T13:04:39;32.47;;;22.40;;
34805;SDS011;65084;42.196;25.326;2023-12-20T13:07:06;36.60;;;23.42;;
34805;SDS011;65084;42.196;25.326;2023-12-20T13:09:35;36.28;;;22.17;;
34805;SDS011;65084;42.196;25.326;2023-12-20T13:12:05;35.92;;;22.73;;
34805;SDS011;65084;42.196;25.326;2023-12-20T13:14:33;37.28;;;21.92;;
34805;SDS011;65084;42.196;25.326;2023-12-20T13:17:02;36.47;;;22.75;;
34805;SDS011;65084;42.196;25.326;2023-12-20T13:19:30;43.10;;;24.15;;
34805;SDS011;65084;42.196;25.326;2023-12-20T13:21:57;41.63;;;23.85;;
34805;SDS011;65084;42.196;25.326;2023-12-20T13:24:24;38.85;;;23.77;;
34805;SDS011;65084;42.196;25.326;2023-12-20T13:26:51;37.80;;;24.90;;
34805;SDS011;65084;42.196;25.326;2023-12-20T13:29:20;38.03;;;24.15;;
34805;SDS011;65084;42.196;25.326;2023-12-20T13:31:48;37.67;;;22.27;;
34805;SDS011;65084;42.196;25.326;2023-12-20T13:34:16;34.88;;;22.60;;
34805;SDS011;65084;42.196;25.326;2023-12-20T13:36:43;35.45;;;23.25;;
34805;SDS011;65084;42.196;25.326;2023-12-20T13:39:12;42.58;;;26.40;;
34805;SDS011;65084;42.196;25.326;2023-12-20T13:41:40;46.78;;;26.98;;
34805;SDS011;65084;42.196;25.326;2023-12-20T13:44:07;51.25;;;28.35;;
34805;SDS011;65084;42.196;25.326;2023-12-20T13:46:35;46.25;;;29.02;;
34805;SDS011;65084;42.196;25.326;2023-12-20T13:49:03;48.22;;;31.15;;
34805;SDS011;65084;42.196;25.326;2023-12-20T13:51:31;59.70;;;31.90;;
34805;SDS011;65084;42.196;25.326;2023-12-20T13:53:58;51.83;;;32.35;;
34805;SDS011;65084;42.196;25.326;2023-12-20T13:56:25;61.28;;;34.78;;
34805;SDS011;65084;42.196;25.326;2023-12-20T13:58:52;52.58;;;33.17;;
34805;SDS011;65084;42.196;25.326;2023-12-20T14:01:20;59.75;;;32.25;;
34805;SDS011;65084;42.196;25.326;2023-12-20T14:03:48;49.92;;;32.97;;
34805;SDS011;65084;42.196;25.326;2023-12-20T14:06:16;49.08;;;31.40;;
34805;SDS011;65084;42.196;25.326;2023-12-20T14:08:43;51.95;;;31.95;;
34805;SDS011;65084;42.196;25.326;2023-12-20T14:11:10;47.95;;;33.22;;
34805;SDS011;65084;42.196;25.326;2023-12-20T14:13:40;53.95;;;31.48;;